Time;durP1;ratioP1;P1;durP2;ratioP2;P2;SDS_P1;SDS_P2;PMS_P1;PMS_P2;Temp;Humidity;BMP_temperature;BMP_pressure;BME280_temperature;BME280_humidity;BME280_pressure;Samples;Min_cycle;Max_cycle;Signal;HPM_P1;HPM_P2
2023/12/26 07:23:34;;;;;;;4.00;1.70;;;9.20;99.90;;;;;;5981288;23;20308;-56
2023/12/26 07:25:59;;;;;;;2.63;0.90;;;9.20;99.90;;;;;;4965966;28;20230;-54
2023/12/26 07:28:25;;;;;;;2.73;1.40;;;9.30;99.90;;;;;;4943046;28;20191;-56
2023/12/26 07:30:50;;;;;;;0.93;0.60;;;9.20;99.90;;;;;;4944777;29;20187;-53
2023/12/26 07:33:16;;;;;;;1.37;0.80;;;9.20;99.90;;;;;;4952732;28;20197;-51
2023/12/26 07:35:42;;;;;;;6.13;0.60;;;9.20;99.90;;;;;;4937926;28;20239;-51
2023/12/26 07:38:07;;;;;;;0.87;0.50;;;9.20;99.90;;;;;;4946052;28;20190;-51
2023/12/26 07:40:33;;;;;;;1.10;0.60;;;9.10;99.90;;;;;;4938359;28;20678;-56
2023/12/26 07:42:59;;;;;;;1.70;0.70;;;9.20;99.90;;;;;;4936398;29;20241;-55
2023/12/26 07:45:25;;;;;;;2.17;0.73;;;9.10;99.90;;;;;;4953142;28;20202;-54
2023/12/26 07:47:51;;;;;;;0.97;0.63;;;9.10;99.90;;;;;;4935185;28;20668;-54
2023/12/26 07:50:17;;;;;;;2.80;1.00;;;9.10;99.90;;;;;;4934133;29;20521;-55
2023/12/26 07:52:43;;;;;;;4.00;0.87;;;9.00;99.90;;;;;;4933733;29;20243;-54
2023/12/26 07:55:08;;;;;;;3.47;1.07;;;9.10;99.90;;;;;;4932272;29;20963;-51
2023/12/26 07:57:34;;;;;;;1.13;0.60;;;9.20;99.90;;;;;;4941714;29;20218;-51
2023/12/26 07:59:59;;;;;;;5.10;0.83;;;9.20;99.90;;;;;;4937011;28;20198;-56
2023/12/26 08:02:25;;;;;;;5.53;1.10;;;9.30;99.90;;;;;;4945005;28;20202;-54
2023/12/26 08:04:51;;;;;;;2.47;0.90;;;9.30;99.90;;;;;;4934376;28;20203;-52
2023/12/26 08:07:16;;;;;;;3.97;1.30;;;9.30;99.90;;;;;;4933976;29;20190;-52
2023/12/26 08:09:42;;;;;;;3.57;0.87;;;9.30;99.90;;;;;;4933577;29;20210;-53
2023/12/26 08:12:08;;;;;;;1.47;0.80;;;9.30;99.90;;;;;;4933616;29;20209;-52
2023/12/26 08:14:34;;;;;;;1.77;1.27;;;9.30;99.90;;;;;;4940601;29;20194;-55
2023/12/26 08:17:00;;;;;;;3.33;1.30;;;9.30;99.90;;;;;;4933759;28;20659;-56
2023/12/26 08:19:25;;;;;;;4.87;1.53;;;9.30;99.90;;;;;;4933456;29;20262;-52
2023/12/26 08:21:51;;;;;;;3.73;1.30;;;9.30;99.90;;;;;;4935543;29;20179;-51
2023/12/26 08:24:16;;;;;;;5.57;1.27;;;9.40;99.90;;;;;;4944900;28;20226;-51
2023/12/26 08:26:42;;;;;;;2.60;1.47;;;9.40;99.90;;;;;;4933467;29;20184;-53
2023/12/26 08:29:07;;;;;;;3.87;1.43;;;9.40;99.90;;;;;;4933280;29;20185;-55
2023/12/26 08:31:33;;;;;;;3.13;1.17;;;9.40;99.90;;;;;;4933410;29;20561;-53
2023/12/26 08:33:59;;;;;;;5.70;1.70;;;9.40;99.90;;;;;;4932654;29;20209;-55
2023/12/26 08:36:25;;;;;;;4.70;1.87;;;9.50;99.90;;;;;;4940043;29;20218;-54
2023/12/26 08:38:50;;;;;;;2.93;1.57;;;9.40;99.90;;;;;;4936217;28;20191;-53
2023/12/26 08:41:16;;;;;;;2.00;1.13;;;9.50;99.90;;;;;;4939211;28;20187;-53
2023/12/26 08:43:42;;;;;;;3.87;1.10;;;9.50;99.90;;;;;;4940151;29;20495;-54
2023/12/26 08:46:07;;;;;;;4.40;0.90;;;9.50;99.90;;;;;;4933165;29;20183;-55
2023/12/26 08:48:33;;;;;;;3.47;1.20;;;9.50;99.90;;;;;;4936399;29;20184;-53
2023/12/26 08:50:59;;;;;;;1.50;0.83;;;9.50;99.90;;;;;;4932751;29;20186;-52
2023/12/26 08:53:24;;;;;;;3.17;0.93;;;9.60;99.90;;;;;;4925864;29;20191;-52
2023/12/26 08:55:50;;;;;;;2.27;0.90;;;9.60;99.90;;;;;;4931380;29;20193;-54
2023/12/26 08:58:16;;;;;;;8.03;1.30;;;9.60;99.90;;;;;;4937966;29;20545;-53
2023/12/26 09:00:44;;;;;;;5.83;2.20;;;9.60;99.90;;;;;;4951019;28;20194;-52
2023/12/26 09:03:11;;;;;;;4.47;1.93;;;9.60;99.90;;;;;;4932439;29;20207;-56
2023/12/26 09:05:37;;;;;;;6.13;2.00;;;9.70;99.90;;;;;;4932593;29;20186;-59
2023/12/26 09:08:02;;;;;;;7.30;2.20;;;9.70;99.90;;;;;;4936267;29;20182;-54
2023/12/26 09:10:28;;;;;;;4.07;1.50;;;9.70;99.90;;;;;;4937423;28;20183;-53
2023/12/26 09:12:54;;;;;;;4.93;1.30;;;9.70;99.90;;;;;;4930086;29;20191;-56
2023/12/26 09:15:19;;;;;;;4.57;1.47;;;9.60;99.90;;;;;;4927038;29;20222;-55
2023/12/26 09:17:45;;;;;;;4.73;1.40;;;9.60;99.90;;;;;;4939317;29;20191;-64
2023/12/26 09:20:10;;;;;;;2.93;1.00;;;9.60;99.90;;;;;;4926013;29;20225;-51
2023/12/26 09:22:36;;;;;;;5.53;1.17;;;9.60;99.90;;;;;;4940228;29;20203;-55
2023/12/26 09:25:02;;;;;;;3.67;1.10;;;9.70;99.90;;;;;;4924214;29;20244;-53
2023/12/26 09:27:28;;;;;;;5.13;1.10;;;9.60;99.90;;;;;;4939027;29;20210;-53
2023/12/26 09:29:54;;;;;;;7.53;1.20;;;9.70;99.90;;;;;;4925580;28;20219;-55
2023/12/26 09:32:19;;;;;;;2.07;0.97;;;9.70;99.90;;;;;;4932580;29;20215;-53
2023/12/26 09:34:45;;;;;;;3.17;1.07;;;9.60;99.90;;;;;;4931716;29;20207;-53
2023/12/26 09:37:11;;;;;;;1.93;0.90;;;9.60;99.90;;;;;;4944825;29;20186;-54
2023/12/26 09:42:22;;;;;;;3.50;0.90;;;9.70;99.90;;;;;;5087210;28;20476;-52
2023/12/26 09:44:48;;;;;;;6.93;3.37;;;9.80;99.90;;;;;;5068437;28;20271;-52
2023/12/26 09:47:15;;;;;;;8.57;3.00;;;9.90;99.90;;;;;;5066969;28;20583;-53
2023/12/26 09:49:43;;;;;;;10.13;4.80;;;10.00;99.90;;;;;;5066699;28;20175;-52
2023/12/26 09:52:09;;;;;;;11.57;3.83;;;10.10;99.90;;;;;;5067106;28;20606;-51
2023/12/26 09:54:38;;;;;;;6.37;2.33;;;10.90;99.90;;;;;;5066148;28;20206;-53
2023/12/26 09:57:06;;;;;;;6.67;2.57;;;11.70;99.90;;;;;;5066786;28;20170;-52
2023/12/26 09:59:34;;;;;;;7.00;2.63;;;11.70;99.90;;;;;;5066911;28;20201;-53
2023/12/26 10:02:00;;;;;;;8.30;3.13;;;11.60;99.90;;;;;;5066531;28;20211;-54
2023/12/26 10:04:26;;;;;;;8.30;3.83;;;11.30;99.90;;;;;;5066059;28;20260;-55
2023/12/26 10:06:52;;;;;;;1.90;1.00;;;11.60;99.90;;;;;;5066485;28;20646;-53
2023/12/26 10:09:19;;;;;;;4.27;0.80;;;11.60;99.90;;;;;;5066618;28;20273;-53
2023/12/26 10:11:45;;;;;;;2.83;1.00;;;11.50;99.90;;;;;;5066329;28;20186;-53
2023/12/26 10:14:11;;;;;;;6.57;1.97;;;11.70;99.90;;;;;;5065833;28;20297;-55
2023/12/26 10:16:37;;;;;;;5.47;1.63;;;11.70;99.90;;;;;;5066612;28;20178;-53
2023/12/26 10:19:02;;;;;;;2.37;1.13;;;11.80;99.90;;;;;;5058076;28;20659;-56
2023/12/26 10:21:28;;;;;;;6.97;1.70;;;11.60;99.90;;;;;;5066243;28;20685;-53
2023/12/26 10:23:55;;;;;;;8.50;1.17;;;11.40;99.90;;;;;;5064598;28;20203;-52
2023/12/26 10:26:22;;;;;;;1.97;0.97;;;11.10;99.90;;;;;;5066230;28;20179;-52
2023/12/26 10:28:50;;;;;;;2.97;1.37;;;10.90;99.90;;;;;;5066104;28;20776;-56
2023/12/26 10:31:19;;;;;;;7.17;2.97;;;10.60;99.90;;;;;;5066339;28;20187;-57
2023/12/26 10:33:45;;;;;;;6.97;2.03;;;10.60;99.90;;;;;;5065194;28;20214;-57
2023/12/26 10:36:11;;;;;;;7.07;2.70;;;10.50;99.90;;;;;;5066533;28;20183;-55
2023/12/26 10:38:39;;;;;;;8.63;3.07;;;10.40;99.90;;;;;;5066027;28;20617;-56
2023/12/26 10:41:24;;;;;;;8.33;3.10;;;10.30;99.90;;;;;;5057714;28;20643;-56
2023/12/26 10:43:50;;;;;;;10.03;4.60;;;10.20;99.90;;;;;;5064937;28;20206;-56
2023/12/26 10:46:17;;;;;;;16.73;6.90;;;10.20;99.90;;;;;;5066119;28;20549;-54
2023/12/26 10:48:45;;;;;;;7.73;2.80;;;10.20;99.90;;;;;;5065692;28;20634;-55
2023/12/26 10:51:15;;;;;;;6.80;1.67;;;10.30;99.90;;;;;;5065598;28;20183;-51
2023/12/26 10:53:49;;;;;;;4.60;1.63;;;10.20;99.90;;;;;;5051359;28;20580;-55
2023/12/26 10:56:15;;;;;;;2.63;1.03;;;10.20;99.90;;;;;;5052425;28;20261;-56
2023/12/26 10:58:41;;;;;;;4.60;2.03;;;10.20;99.90;;;;;;5052072;28;20722;-56
2023/12/26 11:01:08;;;;;;;7.03;2.50;;;10.20;99.90;;;;;;5052457;28;20207;-52
2023/12/26 13:51:57;;;;;;;6.40;1.40;;;10.20;99.90;;;;;;5049375;28;20266;-56
2023/12/26 13:54:23;;;;;;;13.03;1.70;;;10.20;99.90;;;;;;5048920;28;20195;-57
2023/12/26 13:56:48;;;;;;;10.17;1.70;;;10.10;99.90;;;;;;5049587;28;20198;-56
2023/12/26 13:59:14;;;;;;;10.77;1.60;;;10.00;99.90;;;;;;5049443;28;20198;-56
2023/12/26 14:01:40;;;;;;;12.73;1.70;;;10.00;99.90;;;;;;5049525;28;20664;-52
2023/12/26 14:04:06;;;;;;;8.53;1.37;;;9.90;99.90;;;;;;5048901;28;20626;-55
2023/12/26 14:06:33;;;;;;;7.47;1.20;;;9.90;99.90;;;;;;5049432;28;20703;-53
2023/12/26 14:08:58;;;;;;;7.70;1.20;;;9.80;99.90;;;;;;5049254;28;20274;-52
2023/12/26 14:11:26;;;;;;;10.00;1.70;;;9.70;99.90;;;;;;5049471;28;20861;-55
2023/12/26 14:13:51;;;;;;;6.72;1.80;;;9.50;99.90;;;;;;5047692;28;20416;-56
2023/12/26 14:16:21;;;;;;;11.70;1.77;;;9.50;99.90;;;;;;5049232;28;20187;-58
2023/12/26 14:18:47;;;;;;;10.83;2.10;;;9.50;99.90;;;;;;5049318;28;20210;-56
2023/12/26 14:21:12;;;;;;;7.33;1.80;;;9.50;99.90;;;;;;5049116;28;20686;-54
2023/12/26 14:23:38;;;;;;;5.77;1.77;;;9.40;99.90;;;;;;5048523;28;20264;-58
2023/12/26 14:26:03;;;;;;;13.37;2.10;;;9.30;99.90;;;;;;5049069;28;20175;-56
2023/12/26 14:28:29;;;;;;;9.07;1.37;;;9.20;99.90;;;;;;5051959;28;20600;-55
2023/12/26 14:30:54;;;;;;;11.63;2.00;;;9.20;99.90;;;;;;5052867;28;20271;-57
2023/12/26 14:33:20;;;;;;;8.70;1.77;;;9.20;99.90;;;;;;5052312;28;20191;-57
2023/12/26 14:35:49;;;;;;;10.83;2.00;;;9.20;99.90;;;;;;5052779;28;20175;-57
2023/12/26 14:38:15;;;;;;;5.47;1.90;;;9.10;99.90;;;;;;5052832;28;20688;-54
2023/12/26 14:40:42;;;;;;;7.93;1.40;;;9.10;99.90;;;;;;5052556;28;20298;-57
2023/12/26 14:43:08;;;;;;;11.53;2.10;;;9.00;99.90;;;;;;5052205;28;20183;-56
2023/12/26 14:45:33;;;;;;;11.00;1.90;;;9.00;99.90;;;;;;5051089;28;20811;-54
2023/12/26 14:47:59;;;;;;;9.77;1.80;;;9.00;99.90;;;;;;5052751;28;20187;-57
2023/12/26 14:50:24;;;;;;;8.90;2.07;;;9.00;99.90;;;;;;5052781;28;20191;-57
2023/12/26 14:52:50;;;;;;;10.67;2.00;;;8.90;99.90;;;;;;5051956;28;20183;-61
2023/12/26 14:55:15;;;;;;;6.47;1.40;;;8.80;99.90;;;;;;5052406;28;20272;-55
2023/12/26 14:57:41;;;;;;;8.50;1.80;;;8.70;99.90;;;;;;5052370;28;20190;-53
2023/12/26 15:00:07;;;;;;;8.23;1.70;;;8.50;99.90;;;;;;5052788;28;20345;-54
2023/12/26 15:02:32;;;;;;;8.33;1.87;;;8.30;99.90;;;;;;5052387;28;20643;-53
2023/12/26 15:04:58;;;;;;;11.10;1.80;;;8.20;99.90;;;;;;5051678;28;20203;-56
2023/12/26 15:07:24;;;;;;;6.60;1.60;;;8.10;99.90;;;;;;5052513;28;20186;-56
2023/12/26 15:09:50;;;;;;;7.43;1.50;;;7.90;99.90;;;;;;5052182;28;20191;-55
2023/12/26 15:12:15;;;;;;;9.13;1.53;;;7.90;99.90;;;;;;5052396;28;20209;-53
2023/12/26 15:14:41;;;;;;;10.60;1.97;;;7.80;99.90;;;;;;5050061;28;20215;-54
2023/12/26 15:17:07;;;;;;;6.93;1.90;;;7.80;99.90;;;;;;5052032;28;20183;-56
2023/12/26 15:19:32;;;;;;;12.63;2.00;;;7.80;99.90;;;;;;5052331;28;20253;-54
2023/12/26 15:21:58;;;;;;;11.13;2.60;;;7.80;99.90;;;;;;5052396;28;20210;-54
2023/12/26 15:24:24;;;;;;;5.33;1.47;;;7.80;99.90;;;;;;5051311;28;20199;-53
2023/12/26 15:26:50;;;;;;;10.10;1.73;;;7.70;99.90;;;;;;5052572;28;20191;-53
2023/12/26 15:29:16;;;;;;;5.17;1.50;;;7.60;99.90;;;;;;5052537;28;20179;-56
2023/12/26 15:31:42;;;;;;;5.20;1.60;;;7.40;99.90;;;;;;5051492;28;20432;-56
2023/12/26 15:34:08;;;;;;;9.17;2.33;;;7.30;99.90;;;;;;5051846;28;20207;-56
2023/12/26 15:36:33;;;;;;;7.27;1.67;;;7.20;99.90;;;;;;5052569;28;20943;-57
2023/12/26 15:38:59;;;;;;;8.80;1.83;;;7.20;99.90;;;;;;5052054;28;20191;-55
2023/12/26 15:41:25;;;;;;;8.33;2.13;;;7.20;99.90;;;;;;5052114;28;20299;-55
2023/12/26 15:43:54;;;;;;;7.10;1.80;;;7.20;99.90;;;;;;5051228;28;20202;-53
2023/12/26 15:46:21;;;;;;;7.83;1.87;;;7.20;99.90;;;;;;5052244;28;20292;-56
2023/12/26 15:48:48;;;;;;;14.63;3.87;;;7.30;99.90;;;;;;5052054;28;20179;-54
2023/12/26 15:51:16;;;;;;;12.77;4.00;;;7.40;99.90;;;;;;5052272;28;20266;-55
2023/12/26 15:53:45;;;;;;;12.77;2.90;;;7.40;99.90;;;;;;5051313;28;20207;-56
2023/12/26 15:56:11;;;;;;;16.30;3.33;;;7.50;99.90;;;;;;5051980;28;20194;-55
2023/12/26 15:58:37;;;;;;;14.17;2.43;;;7.60;99.90;;;;;;5051942;28;20191;-56
2023/12/26 16:01:04;;;;;;;13.63;2.90;;;7.70;99.90;;;;;;5050385;28;20700;-56
2023/12/26 16:03:29;;;;;;;18.03;3.40;;;7.80;99.90;;;;;;5051513;28;20233;-57
2023/12/26 16:05:55;;;;;;;16.40;3.10;;;7.80;99.90;;;;;;5051853;28;20179;-57
2023/12/26 16:08:24;;;;;;;16.10;3.70;;;7.80;99.90;;;;;;5051817;28;20646;-55
2023/12/26 16:10:52;;;;;;;10.63;2.27;;;7.80;99.90;;;;;;5051471;28;20183;-56
2023/12/26 16:13:19;;;;;;;9.77;2.27;;;7.90;99.90;;;;;;5050660;28;20732;-54
2023/12/26 16:15:48;;;;;;;13.23;2.30;;;7.80;99.90;;;;;;5051496;28;20183;-55
2023/12/26 16:18:14;;;;;;;10.77;2.50;;;7.90;99.90;;;;;;5051471;28;20183;-56
2023/12/26 16:20:39;;;;;;;15.27;2.57;;;7.90;99.90;;;;;;5051607;28;20241;-51
2023/12/26 16:23:08;;;;;;;8.43;1.90;;;7.90;99.90;;;;;;5050593;28;20270;-56
2023/12/26 16:25:37;;;;;;;6.37;1.70;;;8.00;99.90;;;;;;5050328;28;20203;-56
2023/12/26 16:28:03;;;;;;;10.70;1.67;;;8.00;99.90;;;;;;5050994;28;20673;-54
2023/12/26 16:30:29;;;;;;;6.87;1.70;;;8.10;99.90;;;;;;5050184;28;20199;-56
2023/12/26 16:32:55;;;;;;;6.33;1.57;;;8.10;99.90;;;;;;5050629;28;20217;-56
2023/12/26 16:35:21;;;;;;;8.20;1.80;;;8.20;99.90;;;;;;5051057;28;20207;-56
2023/12/26 16:37:47;;;;;;;11.07;1.87;;;8.10;99.90;;;;;;5050946;28;20211;-54
2023/12/26 16:40:13;;;;;;;11.50;2.30;;;8.20;99.90;;;;;;5050706;28;20307;-56
2023/12/26 16:42:39;;;;;;;11.03;1.67;;;8.10;99.90;;;;;;5051055;28;20179;-59
2023/12/26 16:45:05;;;;;;;8.67;1.90;;;8.10;99.90;;;;;;5050257;28;20209;-56
2023/12/26 16:47:30;;;;;;;8.90;1.70;;;8.10;99.90;;;;;;5050996;28;20269;-55
2023/12/26 16:49:58;;;;;;;10.13;1.93;;;8.10;99.90;;;;;;5050423;28;20175;-56
2023/12/26 16:52:24;;;;;;;13.07;2.50;;;8.10;99.90;;;;;;5050814;28;20606;-54
2023/12/26 16:54:51;;;;;;;6.23;1.60;;;8.10;99.90;;;;;;5049830;28;20201;-52
2023/12/26 16:57:17;;;;;;;11.13;1.83;;;8.10;99.90;;;;;;5050985;28;20183;-58
2023/12/26 16:59:43;;;;;;;10.43;1.93;;;8.10;99.90;;;;;;5050829;28;20187;-57
2023/12/26 17:02:08;;;;;;;10.90;2.10;;;8.00;99.90;;;;;;5051101;28;20465;-55
2023/12/26 17:04:34;;;;;;;15.73;2.60;;;8.00;99.90;;;;;;5050130;28;20195;-51
2023/12/26 17:07:02;;;;;;;6.67;1.73;;;8.00;99.90;;;;;;5050356;28;20217;-55
2023/12/26 17:09:27;;;;;;;10.70;2.00;;;8.00;99.90;;;;;;5050689;28;20187;-53
2023/12/26 17:11:53;;;;;;;9.53;2.20;;;8.00;99.90;;;;;;5050686;28;20194;-57
2023/12/26 17:14:18;;;;;;;11.77;2.70;;;8.00;99.90;;;;;;5049974;28;20207;-56
2023/12/26 17:16:44;;;;;;;12.90;2.17;;;8.00;99.90;;;;;;5050548;28;20718;-56
2023/12/26 17:19:10;;;;;;;12.20;1.80;;;8.00;99.90;;;;;;5050715;28;20236;-58
2023/12/26 17:21:40;;;;;;;9.00;2.20;;;7.90;99.90;;;;;;5050268;28;20685;-55
2023/12/26 17:24:06;;;;;;;9.50;2.50;;;7.90;99.90;;;;;;5049530;28;20198;-53
2023/12/26 17:26:31;;;;;;;9.23;2.50;;;7.80;99.90;;;;;;5050099;28;20178;-54
2023/12/26 17:28:57;;;;;;;13.67;2.50;;;7.90;99.90;;;;;;5050268;28;20765;-53
2023/12/26 17:31:23;;;;;;;7.73;2.50;;;7.80;99.90;;;;;;5050336;28;20328;-57
2023/12/26 17:33:49;;;;;;;9.87;2.37;;;7.80;99.90;;;;;;5049346;28;20218;-54
2023/12/26 17:36:16;;;;;;;8.50;2.23;;;7.80;99.90;;;;;;5050124;28;20241;-52
2023/12/26 17:38:45;;;;;;;10.87;2.53;;;7.70;99.90;;;;;;5050496;28;20228;-56
2023/12/26 17:41:11;;;;;;;10.33;2.20;;;7.70;99.90;;;;;;5050007;28;20210;-57
2023/12/26 17:43:37;;;;;;;7.50;2.60;;;7.60;99.90;;;;;;5049703;28;20597;-55
2023/12/26 17:46:03;;;;;;;11.30;2.40;;;7.70;99.90;;;;;;5058289;28;20190;-54
2023/12/26 17:48:29;;;;;;;12.47;2.27;;;7.70;99.90;;;;;;5050730;28;20183;-53
2023/12/26 17:50:55;;;;;;;13.13;2.47;;;7.60;99.90;;;;;;5049920;28;20191;-54
2023/12/26 17:53:20;;;;;;;12.17;1.93;;;7.60;99.90;;;;;;5049765;28;20189;-56
2023/12/26 17:55:46;;;;;;;11.73;2.30;;;7.60;99.90;;;;;;5049972;28;20185;-54
2023/12/26 17:58:11;;;;;;;11.07;2.17;;;7.60;99.90;;;;;;5050354;28;20211;-52
2023/12/26 18:00:37;;;;;;;9.40;2.30;;;7.60;99.90;;;;;;5050139;28;20289;-54
2023/12/26 18:03:03;;;;;;;10.93;3.30;;;7.60;99.90;;;;;;5051553;28;20179;-55
2023/12/26 18:05:29;;;;;;;9.70;2.37;;;7.60;99.90;;;;;;5052713;28;20199;-55
2023/12/26 18:07:54;;;;;;;9.63;2.50;;;7.60;99.90;;;;;;5054179;28;20594;-53
2023/12/26 18:10:20;;;;;;;9.40;2.27;;;7.60;99.90;;;;;;5062466;28;20177;-57
2023/12/26 18:12:46;;;;;;;13.33;2.90;;;7.60;99.90;;;;;;5052163;28;20183;-56
2023/12/26 18:15:11;;;;;;;11.67;2.00;;;7.50;99.90;;;;;;5053746;28;20735;-58
2023/12/26 18:17:37;;;;;;;12.20;2.97;;;7.50;99.90;;;;;;5053996;28;20183;-57
2023/12/26 18:20:03;;;;;;;9.23;2.30;;;7.60;99.90;;;;;;5053578;28;20262;-55
2023/12/26 18:22:29;;;;;;;12.53;2.40;;;7.60;99.90;;;;;;5053759;28;20214;-56
2023/12/26 18:24:54;;;;;;;13.07;2.47;;;7.60;99.90;;;;;;5053184;28;20203;-57
2023/12/26 18:27:20;;;;;;;10.70;2.53;;;7.60;99.90;;;;;;5053829;28;20245;-57
2023/12/26 18:29:46;;;;;;;8.87;2.13;;;7.60;99.90;;;;;;5053648;28;20179;-57
2023/12/26 18:32:12;;;;;;;13.83;3.77;;;7.60;99.90;;;;;;5053732;28;20185;-57
2023/12/26 18:34:38;;;;;;;12.67;3.07;;;7.60;99.90;;;;;;5052871;28;20207;-54
2023/12/26 18:37:04;;;;;;;16.10;3.40;;;7.60;99.90;;;;;;5053644;28;20198;-54
2023/12/26 18:39:29;;;;;;;9.67;2.80;;;7.60;99.90;;;;;;5053693;28;20268;-54
2023/12/26 18:41:55;;;;;;;8.30;1.80;;;7.50;99.90;;;;;;5051870;28;20606;-52
2023/12/26 18:44:20;;;;;;;16.00;2.47;;;7.50;99.90;;;;;;5052649;28;20226;-53
2023/12/26 18:46:46;;;;;;;14.83;2.10;;;7.50;99.90;;;;;;5061466;28;20270;-54
2023/12/26 18:49:12;;;;;;;11.40;2.90;;;7.50;99.90;;;;;;5053050;28;20191;-52
2023/12/26 18:51:38;;;;;;;15.67;6.50;;;7.50;99.90;;;;;;5053256;28;20634;-51
2023/12/26 18:54:04;;;;;;;14.53;3.57;;;7.50;99.90;;;;;;5052505;28;20293;-53
2023/12/26 18:56:30;;;;;;;16.03;2.67;;;7.60;99.90;;;;;;5053226;28;20182;-54
2023/12/26 18:58:57;;;;;;;9.07;2.20;;;7.50;99.90;;;;;;5052955;28;20201;-54
2023/12/26 19:01:23;;;;;;;14.67;2.63;;;7.50;99.90;;;;;;5052976;28;20198;-53
2023/12/26 19:03:49;;;;;;;9.23;2.20;;;7.40;99.90;;;;;;5052126;28;20253;-54
2023/12/26 19:06:15;;;;;;;12.23;2.43;;;7.40;99.90;;;;;;5053156;28;20258;-52
2023/12/26 19:08:41;;;;;;;10.93;2.73;;;7.40;99.90;;;;;;5052956;28;20606;-54
2023/12/26 19:11:06;;;;;;;16.57;2.83;;;7.40;99.90;;;;;;5052761;28;20187;-53
2023/12/26 19:13:35;;;;;;;14.13;2.73;;;7.30;99.90;;;;;;5051831;28;20836;-53
2023/12/26 19:16:01;;;;;;;12.83;3.03;;;7.30;99.90;;;;;;5052599;28;20758;-53
2023/12/26 19:18:26;;;;;;;12.90;2.47;;;7.20;99.90;;;;;;5052642;28;20273;-52
2023/12/26 19:20:52;;;;;;;12.33;2.40;;;7.40;99.90;;;;;;5052394;28;20249;-52
2023/12/26 19:23:18;;;;;;;18.43;2.67;;;7.40;99.90;;;;;;5051902;28;20390;-55
2023/12/26 19:25:43;;;;;;;12.93;2.20;;;7.30;99.90;;;;;;5052000;28;20178;-52
2023/12/26 19:28:09;;;;;;;13.97;2.53;;;7.30;99.90;;;;;;5052691;28;20663;-52
2023/12/26 19:30:39;;;;;;;13.97;2.77;;;7.30;99.90;;;;;;5052569;28;20187;-53
2023/12/26 19:33:05;;;;;;;15.23;2.70;;;7.30;99.90;;;;;;5051781;28;20187;-53
2023/12/26 19:35:31;;;;;;;21.00;3.73;;;7.20;99.90;;;;;;5052301;28;20215;-53
2023/12/26 19:37:57;;;;;;;10.33;2.60;;;7.30;99.90;;;;;;5052546;28;20187;-52
2023/12/26 19:40:23;;;;;;;11.00;2.50;;;7.20;99.90;;;;;;5060605;28;20278;-53
2023/12/26 19:42:49;;;;;;;10.93;2.30;;;7.20;99.90;;;;;;5052009;28;20187;-52
2023/12/26 19:45:15;;;;;;;12.63;2.50;;;7.20;99.90;;;;;;5051975;28;20582;-53
2023/12/26 19:47:41;;;;;;;12.53;2.63;;;7.10;99.90;;;;;;5050925;28;20681;-53
2023/12/26 19:50:07;;;;;;;15.07;2.60;;;7.20;99.90;;;;;;5052079;28;20191;-52
2023/12/26 19:52:33;;;;;;;15.70;2.67;;;7.20;99.90;;;;;;5052164;28;20191;-52
2023/12/26 19:54:58;;;;;;;11.70;2.50;;;7.20;99.90;;;;;;5051404;28;20217;-54
2023/12/26 19:57:25;;;;;;;11.63;2.53;;;7.10;99.90;;;;;;5052050;28;20190;-52
2023/12/26 19:59:51;;;;;;;13.17;2.10;;;7.10;99.90;;;;;;5052034;28;20179;-54
2023/12/26 20:02:17;;;;;;;9.37;2.20;;;7.00;99.90;;;;;;5051685;28;20211;-53
2023/12/26 20:04:43;;;;;;;11.13;2.47;;;7.00;99.90;;;;;;5051189;28;20227;-51
2023/12/26 20:07:09;;;;;;;17.73;5.07;;;7.10;99.90;;;;;;5051617;28;20206;-52
2023/12/26 20:09:35;;;;;;;14.27;5.10;;;7.10;99.90;;;;;;5051761;28;20672;-54
2023/12/26 20:12:01;;;;;;;35.03;11.50;;;7.10;99.90;;;;;;5051706;28;20634;-52
2023/12/26 20:14:26;;;;;;;17.40;4.10;;;7.10;99.90;;;;;;5050985;28;20286;-51
2023/12/26 20:16:52;;;;;;;10.03;3.20;;;7.10;99.90;;;;;;5051463;28;20278;-53
2023/12/26 20:19:19;;;;;;;13.73;2.97;;;7.10;99.90;;;;;;5051530;28;20215;-53
2023/12/26 20:21:45;;;;;;;14.93;2.57;;;7.10;99.90;;;;;;5051522;28;20233;-55
2023/12/26 20:24:13;;;;;;;9.37;2.57;;;7.10;99.90;;;;;;5050657;28;20195;-53
2023/12/26 20:26:46;;;;;;;10.40;2.60;;;7.10;99.90;;;;;;5051036;28;20187;-52
2023/12/26 20:29:17;;;;;;;10.10;2.17;;;7.10;99.90;;;;;;5042241;28;20187;-53
2023/12/26 20:31:43;;;;;;;12.23;2.40;;;7.10;99.90;;;;;;5051697;28;20583;-55
2023/12/26 20:34:10;;;;;;;11.30;1.90;;;7.00;99.90;;;;;;5049260;28;20206;-52
2023/12/26 20:36:35;;;;;;;11.67;2.17;;;7.00;99.90;;;;;;5051310;28;20552;-56
2023/12/26 20:39:01;;;;;;;8.80;2.07;;;7.00;99.90;;;;;;5051318;28;20195;-56
2023/12/26 20:41:26;;;;;;;8.23;2.23;;;6.90;99.90;;;;;;5051143;28;20215;-55
2023/12/26 20:43:52;;;;;;;10.83;2.07;;;6.90;99.90;;;;;;5050376;28;20202;-54
2023/12/26 20:46:17;;;;;;;13.20;2.10;;;6.90;99.90;;;;;;5051196;28;20677;-54
2023/12/26 20:48:43;;;;;;;14.23;2.17;;;6.80;99.90;;;;;;5051319;28;20208;-51
2023/12/26 20:51:09;;;;;;;12.00;3.20;;;6.90;99.90;;;;;;5050798;28;20187;-53
2023/12/26 20:53:34;;;;;;;7.50;2.13;;;6.90;99.90;;;;;;5050339;28;20210;-53
2023/12/26 20:56:00;;;;;;;12.67;2.30;;;6.90;99.90;;;;;;5050945;28;20217;-52
2023/12/26 20:58:25;;;;;;;11.00;2.10;;;6.80;99.90;;;;;;5059173;28;20212;-52
2023/12/26 21:00:51;;;;;;;14.33;2.23;;;6.80;99.90;;;;;;5050656;28;20206;-57
2023/12/26 21:03:16;;;;;;;8.23;2.13;;;6.90;99.90;;;;;;5054544;28;20178;-57
2023/12/26 21:05:43;;;;;;;12.33;2.20;;;6.90;99.90;;;;;;5053204;28;20174;-55
2023/12/26 21:08:08;;;;;;;18.73;3.50;;;6.90;99.90;;;;;;5050615;28;20654;-55
2023/12/26 21:10:34;;;;;;;13.33;2.43;;;6.90;99.90;;;;;;5050761;28;20282;-56
2023/12/26 21:13:01;;;;;;;11.77;2.30;;;6.80;99.90;;;;;;5050105;28;20658;-53
2023/12/26 21:15:26;;;;;;;9.77;2.53;;;6.80;99.90;;;;;;5049253;28;20556;-55
2023/12/26 21:17:52;;;;;;;18.20;2.60;;;6.80;99.90;;;;;;5050559;28;20179;-56
